createdAt,value
2023-01-18T00:03:36.718Z,21.98
2023-01-18T00:08:39.744Z,21.65
2023-01-18T00:13:41.804Z,31.92
2023-01-18T00:18:49.731Z,34.35
2023-01-18T00:23:51.520Z,28.58
2023-01-18T00:28:56.184Z,37.03
2023-01-18T00:33:58.544Z,80.10
2023-01-18T00:39:00.742Z,45.10
2023-01-18T00:44:02.445Z,36.55
2023-01-18T00:49:04.209Z,38.37
2023-01-18T00:54:05.865Z,106.50
2023-01-18T00:59:07.717Z,54.70
2023-01-18T01:04:28.166Z,14.13
2023-01-18T01:09:29.945Z,34.85
2023-01-18T01:14:52.301Z,86.73
2023-01-18T01:20:12.695Z,67.50
2023-01-18T01:25:33.183Z,23.27
2023-01-18T01:30:34.927Z,80.35
2023-01-18T01:35:36.643Z,70.97
2023-01-18T01:40:38.414Z,92.10
2023-01-18T01:45:40.125Z,60.73
2023-01-18T01:50:42.005Z,60.70
2023-01-18T01:55:43.756Z,54.23
2023-01-18T02:00:45.631Z,36.90
2023-01-18T02:05:50.492Z,82.03
2023-01-18T02:10:52.720Z,55.08
2023-01-18T02:16:06.640Z,111.72
2023-01-18T02:21:18.547Z,461.77
2023-01-18T02:26:48.458Z,207.20
2023-01-18T02:32:13.196Z,74.20
2023-01-18T02:37:20.977Z,83.38
2023-01-18T02:42:45.579Z,65.40
2023-01-18T02:47:48.307Z,40.72
2023-01-18T02:52:52.048Z,35.28
2023-01-18T02:58:00.117Z,14.85
2023-01-18T03:03:02.352Z,11.88
2023-01-18T03:08:27.291Z,13.32
2023-01-18T03:13:58.647Z,13.20
2023-01-18T03:19:25.179Z,11.27
2023-01-18T03:24:30.259Z,14.23
2023-01-18T03:29:51.029Z,11.63
2023-01-18T03:35:07.982Z,11.05
2023-01-18T03:40:27.344Z,11.20
2023-01-18T03:45:48.129Z,14.70
2023-01-18T03:51:00.290Z,12.73
2023-01-18T03:56:08.695Z,14.88
2023-01-18T04:01:10.641Z,14.40
2023-01-18T04:06:12.429Z,14.90
2023-01-18T04:11:14.081Z,16.57
2023-01-18T04:16:16.126Z,14.60
2023-01-18T04:21:18.018Z,13.95
2023-01-18T04:26:19.897Z,13.02
2023-01-18T04:31:22.552Z,12.83
2023-01-18T04:36:24.339Z,15.13
2023-01-18T04:41:26.027Z,13.83
2023-01-18T04:46:27.851Z,14.50
2023-01-18T04:51:31.337Z,13.13
2023-01-18T04:56:33.041Z,26.42
2023-01-18T05:01:35.701Z,14.40
2023-01-18T05:06:37.453Z,14.35
2023-01-18T05:11:39.224Z,12.37
2023-01-18T05:16:41.155Z,12.40
2023-01-18T05:21:42.952Z,15.70
2023-01-18T05:26:45.054Z,12.47
2023-01-18T05:31:46.843Z,15.75
2023-01-18T05:36:49.196Z,13.60
2023-01-18T05:41:50.890Z,12.93
2023-01-18T05:46:52.578Z,12.47
2023-01-18T05:51:54.236Z,15.10
2023-01-18T05:56:56.377Z,12.50
2023-01-18T06:01:58.095Z,13.40
2023-01-18T06:06:59.964Z,12.25
2023-01-18T06:12:02.047Z,10.77
2023-01-18T06:17:04.600Z,12.18
2023-01-18T06:22:06.671Z,15.60
2023-01-18T06:27:08.403Z,14.23
2023-01-18T06:32:10.119Z,12.97
2023-01-18T06:37:12.696Z,12.87
2023-01-18T06:42:14.503Z,12.27
2023-01-18T06:47:19.807Z,11.83
2023-01-18T06:52:21.895Z,12.57
2023-01-18T06:57:23.933Z,18.92
2023-01-18T07:02:25.612Z,12.50
2023-01-18T07:07:27.891Z,12.67
2023-01-18T07:12:29.554Z,13.05
2023-01-18T07:17:31.749Z,14.27
2023-01-18T07:22:33.418Z,12.52
2023-01-18T07:27:35.135Z,14.03
2023-01-18T07:32:36.767Z,11.03
2023-01-18T07:37:38.597Z,11.00
2023-01-18T07:42:40.549Z,11.02
2023-01-18T07:47:42.733Z,14.00
2023-01-18T07:52:44.543Z,12.38
2023-01-18T07:57:46.259Z,13.43
2023-01-18T08:02:51.018Z,13.93
2023-01-18T08:07:53.790Z,13.93
2023-01-18T08:12:55.613Z,14.73
2023-01-18T08:17:57.753Z,13.10
2023-01-18T08:23:00.840Z,13.85
2023-01-18T08:28:03.642Z,14.88
2023-01-18T08:33:05.677Z,13.52
2023-01-18T08:38:07.474Z,11.60
2023-01-18T08:43:10.956Z,13.47
2023-01-18T08:48:12.548Z,13.98
2023-01-18T08:53:14.235Z,15.53
2023-01-18T08:58:15.910Z,20.33
2023-01-18T09:03:21.959Z,14.40
2023-01-18T09:08:23.698Z,16.40
2023-01-18T09:13:25.358Z,13.47
2023-01-18T09:18:27.159Z,16.70
2023-01-18T09:23:28.810Z,13.63
2023-01-18T09:28:31.565Z,13.67
2023-01-18T09:33:37.869Z,17.20
2023-01-18T09:38:44.713Z,19.13
2023-01-18T09:43:52.874Z,19.25
2023-01-18T09:48:59.323Z,24.77
2023-01-18T09:54:14.000Z,29.55
2023-01-18T09:59:32.908Z,28.63
2023-01-18T10:04:41.054Z,27.77
2023-01-18T10:09:49.403Z,20.95
2023-01-18T10:15:22.911Z,22.80
2023-01-18T10:20:44.309Z,23.02
2023-01-18T10:25:53.292Z,26.45
2023-01-18T10:31:06.325Z,25.13
2023-01-18T10:36:16.312Z,26.00
2023-01-18T10:41:28.029Z,27.02
2023-01-18T10:46:30.508Z,28.63
2023-01-18T10:51:36.362Z,27.63
2023-01-18T10:56:39.967Z,24.58
2023-01-18T11:02:01.127Z,25.52
2023-01-18T11:07:33.905Z,28.80
2023-01-18T11:12:44.236Z,23.90
2023-01-18T11:17:56.200Z,21.70
2023-01-18T11:23:14.759Z,17.53
2023-01-18T11:28:19.954Z,17.65
2023-01-18T11:33:23.957Z,14.75
2023-01-18T11:38:28.492Z,15.32
2023-01-18T11:43:33.958Z,14.73
2023-01-18T11:48:44.718Z,14.98
2023-01-18T11:53:55.680Z,15.23
2023-01-18T11:58:57.811Z,13.45
2023-01-18T12:04:03.964Z,11.70
2023-01-18T12:09:11.696Z,11.05
2023-01-18T12:14:28.593Z,10.15
2023-01-18T12:19:52.491Z,9.70
2023-01-18T12:25:00.319Z,9.50
2023-01-18T12:30:29.749Z,8.48
2023-01-18T12:35:50.610Z,8.32
2023-01-18T12:41:26.746Z,8.05
2023-01-18T12:46:43.671Z,9.65
2023-01-18T12:51:49.343Z,8.52
2023-01-18T12:56:54.816Z,9.45
2023-01-18T13:02:24.314Z,7.85
2023-01-18T13:07:32.976Z,9.20
2023-01-18T13:12:34.757Z,9.05
2023-01-18T13:17:36.735Z,7.70
2023-01-18T13:23:03.571Z,6.90
2023-01-18T13:28:18.722Z,8.30
2023-01-18T13:33:26.158Z,8.88
2023-01-18T13:38:40.994Z,8.93
2023-01-18T13:43:43.374Z,13.73
2023-01-18T13:48:46.552Z,9.50
2023-01-18T13:53:50.099Z,9.63
2023-01-18T13:59:01.718Z,10.00
2023-01-18T14:04:31.939Z,9.35
2023-01-18T14:09:43.284Z,9.48
2023-01-18T14:15:00.913Z,11.18
2023-01-18T14:20:34.170Z,9.52
2023-01-18T14:25:48.634Z,8.90
2023-01-18T14:30:54.764Z,8.63
2023-01-18T14:35:59.098Z,10.77
2023-01-18T14:41:08.440Z,10.32
2023-01-18T14:46:15.825Z,9.68
2023-01-18T14:51:22.268Z,9.80
2023-01-18T14:56:29.291Z,8.75
2023-01-18T15:01:31.301Z,9.63
2023-01-18T15:06:43.618Z,8.23
2023-01-18T15:11:45.500Z,10.50
2023-01-18T15:16:50.480Z,10.17
2023-01-18T15:21:52.238Z,9.98
2023-01-18T15:26:56.173Z,11.23
2023-01-18T15:32:02.447Z,10.80
2023-01-18T15:37:09.950Z,11.23
2023-01-18T15:42:15.300Z,10.25
2023-01-18T15:47:23.678Z,9.85
2023-01-18T15:52:43.979Z,11.30
2023-01-18T15:58:00.823Z,11.00
2023-01-18T16:03:04.457Z,10.82
2023-01-18T16:08:21.368Z,11.05
2023-01-18T16:13:26.607Z,10.65
2023-01-18T16:18:28.246Z,12.60
2023-01-18T16:23:30.024Z,11.83
2023-01-18T16:28:32.060Z,11.23
2023-01-18T16:33:33.701Z,11.57
2023-01-18T16:38:35.530Z,10.90
2023-01-18T16:43:37.219Z,11.57
2023-01-18T16:48:38.935Z,10.63
2023-01-18T16:53:40.649Z,12.80
2023-01-18T16:58:43.571Z,10.87
2023-01-18T17:03:45.604Z,10.80
2023-01-18T17:08:49.142Z,11.57
2023-01-18T17:13:50.914Z,12.00
2023-01-18T17:18:52.564Z,12.27
2023-01-18T17:23:54.327Z,12.40
2023-01-18T17:28:55.969Z,13.07
2023-01-18T17:33:58.685Z,12.20
2023-01-18T17:39:00.358Z,13.65
2023-01-18T17:44:03.168Z,13.32
2023-01-18T17:49:04.928Z,14.27
2023-01-18T17:54:13.137Z,12.70
2023-01-18T17:59:22.247Z,14.23
2023-01-18T18:04:23.911Z,14.50
2023-01-18T18:09:25.850Z,12.93
2023-01-18T18:14:30.796Z,14.50
2023-01-18T18:19:33.580Z,15.85
2023-01-18T18:24:35.243Z,13.83
2023-01-18T18:29:36.902Z,14.52
2023-01-18T18:34:38.687Z,14.77
2023-01-18T18:39:40.599Z,13.87
2023-01-18T18:44:42.267Z,13.93
2023-01-18T18:49:44.951Z,13.43
2023-01-18T18:59:49.367Z,14.40
2023-01-18T19:04:51.172Z,14.97
2023-01-18T19:09:53.344Z,13.35
2023-01-18T19:14:55.077Z,14.70
2023-01-18T19:19:56.842Z,16.20
2023-01-18T19:24:59.500Z,14.20
2023-01-18T19:30:01.227Z,15.10
2023-01-18T19:35:03.093Z,16.47
2023-01-18T19:40:05.785Z,14.85
2023-01-18T19:50:11.634Z,18.30
2023-01-18T19:55:13.792Z,18.27
2023-01-18T20:00:16.610Z,18.42
2023-01-18T20:10:20.232Z,20.10
2023-01-18T20:15:22.989Z,19.73
2023-01-18T20:25:34.656Z,19.02
2023-01-18T20:30:39.158Z,19.90
2023-01-18T20:35:42.077Z,19.67
2023-01-18T20:41:24.225Z,23.08
2023-01-18T20:47:06.138Z,21.08
2023-01-18T20:52:22.416Z,19.80
2023-01-18T20:57:37.279Z,21.60
2023-01-18T21:02:42.215Z,19.65
2023-01-18T21:07:44.139Z,21.58
2023-01-18T21:12:47.554Z,21.83
2023-01-18T21:17:51.397Z,24.55
2023-01-18T21:22:53.233Z,25.55
2023-01-18T21:27:55.300Z,23.27
2023-01-18T21:32:57.011Z,23.92
2023-01-18T21:38:02.436Z,26.58
2023-01-18T21:43:22.591Z,24.65
2023-01-18T21:48:26.560Z,25.58
2023-01-18T21:53:46.935Z,27.77
2023-01-18T21:58:55.036Z,23.40
2023-01-18T22:04:15.431Z,20.90
2023-01-18T22:09:17.789Z,19.58
2023-01-18T22:14:19.549Z,21.10
2023-01-18T22:19:21.291Z,21.00
2023-01-18T22:24:23.114Z,19.07
2023-01-18T22:29:24.907Z,19.37
2023-01-18T22:34:26.993Z,18.70
2023-01-18T22:39:28.650Z,20.92
2023-01-18T22:44:30.419Z,18.67
2023-01-18T22:49:32.173Z,20.83
2023-01-18T22:54:33.922Z,19.67
2023-01-18T22:59:35.547Z,21.55
2023-01-18T23:04:37.175Z,22.30
2023-01-18T23:09:39.027Z,23.17
2023-01-18T23:14:59.359Z,26.38
2023-01-18T23:20:01.123Z,25.40
2023-01-18T23:25:03.824Z,27.77
2023-01-18T23:35:07.828Z,27.10
2023-01-18T23:40:28.935Z,25.23
2023-01-18T23:45:49.239Z,28.25
2023-01-18T23:51:09.549Z,30.40
2023-01-18T23:56:11.328Z,26.23
